sensor_id;sensor_type;location;lat;lon;timestamp;temperature;humidity
34153;DHT22;20426;48.372;10.888;2023-05-07T00:00:07;14.90;99.90
34153;DHT22;20426;48.372;10.888;2023-05-07T00:00:38;14.90;99.90
34153;DHT22;20426;48.372;10.888;2023-05-07T00:01:09;14.90;99.90
34153;DHT22;20426;48.372;10.888;2023-05-07T00:01:39;14.90;99.90
34153;DHT22;20426;48.372;10.888;2023-05-07T00:02:10;14.90;99.90
34153;DHT22;20426;48.372;10.888;2023-05-07T00:02:41;14.90;99.90
34153;DHT22;20426;48.372;10.888;2023-05-07T00:03:11;14.80;99.90
34153;DHT22;20426;48.372;10.888;2023-05-07T00:03:44;14.80;99.90
34153;DHT22;20426;48.372;10.888;2023-05-07T00:04:14;14.90;99.90
34153;DHT22;20426;48.372;10.888;2023-05-07T00:04:45;14.90;99.90
34153;DHT22;20426;48.372;10.888;2023-05-07T00:05:16;14.80;99.90
34153;DHT22;20426;48.372;10.888;2023-05-07T00:05:46;14.80;99.90
34153;DHT22;20426;48.372;10.888;2023-05-07T00:06:18;14.80;99.90
34153;DHT22;20426;48.372;10.888;2023-05-07T00:06:49;14.80;99.90
34153;DHT22;20426;48.372;10.888;2023-05-07T00:07:20;14.80;99.90
34153;DHT22;20426;48.372;10.888;2023-05-07T00:07:51;14.80;99.90
34153;DHT22;20426;48.372;10.888;2023-05-07T00:08:23;14.80;99.90
34153;DHT22;20426;48.372;10.888;2023-05-07T00:08:53;14.70;99.90
34153;DHT22;20426;48.372;10.888;2023-05-07T00:09:24;14.70;99.90
34153;DHT22;20426;48.372;10.888;2023-05-07T00:09:55;14.70;99.90
34153;DHT22;20426;48.372;10.888;2023-05-07T00:10:26;14.70;99.90
34153;DHT22;20426;48.372;10.888;2023-05-07T00:10:57;14.70;99.90
34153;DHT22;20426;48.372;10.888;2023-05-07T00:11:28;14.70;99.90
34153;DHT22;20426;48.372;10.888;2023-05-07T00:11:58;14.70;99.90
34153;DHT22;20426;48.372;10.888;2023-05-07T00:12:30;14.70;99.90
34153;DHT22;20426;48.372;10.888;2023-05-07T00:13:02;14.70;99.90
34153;DHT22;20426;48.372;10.888;2023-05-07T00:13:32;14.70;99.90
34153;DHT22;20426;48.372;10.888;2023-05-07T00:14:05;14.70;99.90
34153;DHT22;20426;48.372;10.888;2023-05-07T00:14:36;14.70;99.90
34153;DHT22;20426;48.372;10.888;2023-05-07T00:15:07;14.70;99.90
34153;DHT22;20426;48.372;10.888;2023-05-07T00:15:38;14.70;99.90
34153;DHT22;20426;48.372;10.888;2023-05-07T00:16:09;14.70;99.90
34153;DHT22;20426;48.372;10.888;2023-05-07T00:16:39;14.70;99.90
34153;DHT22;20426;48.372;10.888;2023-05-07T00:17:10;14.70;99.90
34153;DHT22;20426;48.372;10.888;2023-05-07T00:17:41;14.70;99.90
34153;DHT22;20426;48.372;10.888;2023-05-07T00:18:11;14.70;99.90
34153;DHT22;20426;48.372;10.888;2023-05-07T00:18:42;14.60;99.90
34153;DHT22;20426;48.372;10.888;2023-05-07T00:19:13;14.70;99.90
34153;DHT22;20426;48.372;10.888;2023-05-07T00:19:44;14.70;99.90
34153;DHT22;20426;48.372;10.888;2023-05-07T00:20:14;14.60;99.90
34153;DHT22;20426;48.372;10.888;2023-05-07T00:20:45;14.60;99.90
34153;DHT22;20426;48.372;10.888;2023-05-07T00:21:16;14.60;99.90
34153;DHT22;20426;48.372;10.888;2023-05-07T00:21:47;14.60;99.90
34153;DHT22;20426;48.372;10.888;2023-05-07T00:22:17;14.60;99.90
34153;DHT22;20426;48.372;10.888;2023-05-07T00:22:48;14.60;99.90
34153;DHT22;20426;48.372;10.888;2023-05-07T00:23:19;14.60;99.90
34153;DHT22;20426;48.372;10.888;2023-05-07T00:23:50;14.60;99.90
34153;DHT22;20426;48.372;10.888;2023-05-07T00:24:20;14.60;99.90
34153;DHT22;20426;48.372;10.888;2023-05-07T00:24:51;14.60;99.90
34153;DHT22;20426;48.372;10.888;2023-05-07T00:25:22;14.60;99.90
34153;DHT22;20426;48.372;10.888;2023-05-07T00:25:52;14.60;99.90
34153;DHT22;20426;48.372;10.888;2023-05-07T00:26:23;14.60;99.90
34153;DHT22;20426;48.372;10.888;2023-05-07T00:26:54;14.60;99.90
34153;DHT22;20426;48.372;10.888;2023-05-07T00:27:25;14.60;99.90
34153;DHT22;20426;48.372;10.888;2023-05-07T00:27:55;14.50;99.90
34153;DHT22;20426;48.372;10.888;2023-05-07T00:28:27;14.60;99.90
34153;DHT22;20426;48.372;10.888;2023-05-07T00:28:58;14.60;99.90
34153;DHT22;20426;48.372;10.888;2023-05-07T00:29:29;14.50;99.90
34153;DHT22;20426;48.372;10.888;2023-05-07T00:29:59;14.50;99.90
34153;DHT22;20426;48.372;10.888;2023-05-07T00:30:30;14.60;99.90
34153;DHT22;20426;48.372;10.888;2023-05-07T00:31:01;14.60;99.90
34153;DHT22;20426;48.372;10.888;2023-05-07T00:31:31;14.60;99.90
34153;DHT22;20426;48.372;10.888;2023-05-07T00:32:02;14.60;99.90
34153;DHT22;20426;48.372;10.888;2023-05-07T00:32:33;14.60;99.90
34153;DHT22;20426;48.372;10.888;2023-05-07T00:33:03;14.60;99.90
34153;DHT22;20426;48.372;10.888;2023-05-07T00:33:34;14.60;99.90
34153;DHT22;20426;48.372;10.888;2023-05-07T00:34:05;14.60;99.90
34153;DHT22;20426;48.372;10.888;2023-05-07T00:34:36;14.60;99.90
34153;DHT22;20426;48.372;10.888;2023-05-07T00:35:07;14.60;99.90
34153;DHT22;20426;48.372;10.888;2023-05-07T00:35:38;14.60;99.90
34153;DHT22;20426;48.372;10.888;2023-05-07T00:36:09;14.60;99.90
34153;DHT22;20426;48.372;10.888;2023-05-07T00:36:40;14.60;99.90
34153;DHT22;20426;48.372;10.888;2023-05-07T00:37:10;14.60;99.90
34153;DHT22;20426;48.372;10.888;2023-05-07T00:37:45;14.60;99.90
34153;DHT22;20426;48.372;10.888;2023-05-07T00:38:15;14.60;99.90
34153;DHT22;20426;48.372;10.888;2023-05-07T00:38:46;14.60;99.90
34153;DHT22;20426;48.372;10.888;2023-05-07T00:39:17;14.60;99.90
34153;DHT22;20426;48.372;10.888;2023-05-07T00:39:47;14.60;99.90
34153;DHT22;20426;48.372;10.888;2023-05-07T00:40:18;14.60;99.90
34153;DHT22;20426;48.372;10.888;2023-05-07T00:40:49;14.60;99.90
34153;DHT22;20426;48.372;10.888;2023-05-07T00:41:21;14.60;99.90
34153;DHT22;20426;48.372;10.888;2023-05-07T00:41:51;14.60;99.90
34153;DHT22;20426;48.372;10.888;2023-05-07T00:42:22;14.70;99.90
34153;DHT22;20426;48.372;10.888;2023-05-07T00:42:54;14.60;99.90
34153;DHT22;20426;48.372;10.888;2023-05-07T00:43:27;14.70;99.90
34153;DHT22;20426;48.372;10.888;2023-05-07T00:43:57;14.70;99.90
34153;DHT22;20426;48.372;10.888;2023-05-07T00:44:29;14.70;99.90
34153;DHT22;20426;48.372;10.888;2023-05-07T00:45:00;14.70;99.90
34153;DHT22;20426;48.372;10.888;2023-05-07T00:45:31;14.70;99.90
34153;DHT22;20426;48.372;10.888;2023-05-07T00:46:01;14.70;99.90
34153;DHT22;20426;48.372;10.888;2023-05-07T00:46:32;14.70;99.90
34153;DHT22;20426;48.372;10.888;2023-05-07T00:47:04;14.70;99.90
34153;DHT22;20426;48.372;10.888;2023-05-07T00:47:35;14.60;99.90
34153;DHT22;20426;48.372;10.888;2023-05-07T00:48:06;14.60;99.90
34153;DHT22;20426;48.372;10.888;2023-05-07T00:48:37;14.60;99.90
34153;DHT22;20426;48.372;10.888;2023-05-07T00:49:08;14.60;99.90
34153;DHT22;20426;48.372;10.888;2023-05-07T00:49:41;14.60;99.90
34153;DHT22;20426;48.372;10.888;2023-05-07T00:50:12;14.60;99.90
34153;DHT22;20426;48.372;10.888;2023-05-07T00:50:44;14.60;99.90
34153;DHT22;20426;48.372;10.888;2023-05-07T00:51:15;14.60;99.90
34153;DHT22;20426;48.372;10.888;2023-05-07T00:51:46;14.60;99.90
34153;DHT22;20426;48.372;10.888;2023-05-07T00:52:20;14.50;99.90
34153;DHT22;20426;48.372;10.888;2023-05-07T00:52:52;14.60;99.90
34153;DHT22;20426;48.372;10.888;2023-05-07T00:53:23;14.50;99.90
34153;DHT22;20426;48.372;10.888;2023-05-07T00:53:53;14.50;99.90
34153;DHT22;20426;48.372;10.888;2023-05-07T00:54:24;14.50;99.90
34153;DHT22;20426;48.372;10.888;2023-05-07T00:54:55;14.50;99.90
34153;DHT22;20426;48.372;10.888;2023-05-07T00:55:26;14.50;99.90
34153;DHT22;20426;48.372;10.888;2023-05-07T00:55:56;14.60;99.90
34153;DHT22;20426;48.372;10.888;2023-05-07T00:56:27;14.50;99.90
34153;DHT22;20426;48.372;10.888;2023-05-07T00:56:58;14.50;99.90
34153;DHT22;20426;48.372;10.888;2023-05-07T00:57:29;14.50;99.90
34153;DHT22;20426;48.372;10.888;2023-05-07T00:58:02;14.50;99.90
34153;DHT22;20426;48.372;10.888;2023-05-07T00:58:33;14.50;99.90
34153;DHT22;20426;48.372;10.888;2023-05-07T00:59:05;14.50;99.90
34153;DHT22;20426;48.372;10.888;2023-05-07T00:59:36;14.50;99.90
34153;DHT22;20426;48.372;10.888;2023-05-07T01:00:08;14.50;99.90
34153;DHT22;20426;48.372;10.888;2023-05-07T01:00:40;14.50;99.90
34153;DHT22;20426;48.372;10.888;2023-05-07T01:01:11;14.50;99.90
34153;DHT22;20426;48.372;10.888;2023-05-07T01:01:41;14.50;99.90
34153;DHT22;20426;48.372;10.888;2023-05-07T01:02:12;14.50;99.90
34153;DHT22;20426;48.372;10.888;2023-05-07T01:02:43;14.50;99.90
34153;DHT22;20426;48.372;10.888;2023-05-07T01:03:14;14.50;99.90
34153;DHT22;20426;48.372;10.888;2023-05-07T01:03:44;14.50;99.90
34153;DHT22;20426;48.372;10.888;2023-05-07T01:04:15;14.50;99.90
34153;DHT22;20426;48.372;10.888;2023-05-07T01:04:46;14.50;99.90
34153;DHT22;20426;48.372;10.888;2023-05-07T01:05:17;14.50;99.90
34153;DHT22;20426;48.372;10.888;2023-05-07T01:05:50;14.50;99.90
34153;DHT22;20426;48.372;10.888;2023-05-07T01:06:21;14.50;99.90
34153;DHT22;20426;48.372;10.888;2023-05-07T01:06:58;14.50;99.90
34153;DHT22;20426;48.372;10.888;2023-05-07T01:07:30;14.50;99.90
34153;DHT22;20426;48.372;10.888;2023-05-07T01:08:01;14.50;99.90
34153;DHT22;20426;48.372;10.888;2023-05-07T01:08:32;14.50;99.90
34153;DHT22;20426;48.372;10.888;2023-05-07T01:09:03;14.60;99.90
34153;DHT22;20426;48.372;10.888;2023-05-07T01:09:35;14.60;99.90
34153;DHT22;20426;48.372;10.888;2023-05-07T01:10:07;14.60;99.90
34153;DHT22;20426;48.372;10.888;2023-05-07T01:10:38;14.60;99.90
34153;DHT22;20426;48.372;10.888;2023-05-07T01:11:13;14.60;99.90
34153;DHT22;20426;48.372;10.888;2023-05-07T01:11:44;14.60;99.90
34153;DHT22;20426;48.372;10.888;2023-05-07T01:12:15;14.60;99.90
34153;DHT22;20426;48.372;10.888;2023-05-07T01:12:47;14.60;99.90
34153;DHT22;20426;48.372;10.888;2023-05-07T01:13:19;14.60;99.90
34153;DHT22;20426;48.372;10.888;2023-05-07T01:13:50;14.70;99.90
34153;DHT22;20426;48.372;10.888;2023-05-07T01:14:21;14.60;99.90
34153;DHT22;20426;48.372;10.888;2023-05-07T01:14:52;14.60;99.90
34153;DHT22;20426;48.372;10.888;2023-05-07T01:15:23;14.60;99.90
34153;DHT22;20426;48.372;10.888;2023-05-07T01:15:54;14.60;99.90
34153;DHT22;20426;48.372;10.888;2023-05-07T01:16:25;14.60;99.90
34153;DHT22;20426;48.372;10.888;2023-05-07T01:16:55;14.60;99.90
34153;DHT22;20426;48.372;10.888;2023-05-07T01:17:26;14.60;99.90
34153;DHT22;20426;48.372;10.888;2023-05-07T01:17:57;14.50;99.90
34153;DHT22;20426;48.372;10.888;2023-05-07T01:18:28;14.50;99.90
34153;DHT22;20426;48.372;10.888;2023-05-07T01:19:00;14.50;99.90
34153;DHT22;20426;48.372;10.888;2023-05-07T01:19:31;14.50;99.90
34153;DHT22;20426;48.372;10.888;2023-05-07T01:20:02;14.50;99.90
34153;DHT22;20426;48.372;10.888;2023-05-07T01:20:35;14.50;99.90
34153;DHT22;20426;48.372;10.888;2023-05-07T01:21:07;14.50;99.90
34153;DHT22;20426;48.372;10.888;2023-05-07T01:21:39;14.50;99.90
34153;DHT22;20426;48.372;10.888;2023-05-07T01:22:16;14.50;99.90
34153;DHT22;20426;48.372;10.888;2023-05-07T01:22:47;14.50;99.90
34153;DHT22;20426;48.372;10.888;2023-05-07T01:23:19;14.50;99.90
34153;DHT22;20426;48.372;10.888;2023-05-07T01:23:50;14.60;99.90
34153;DHT22;20426;48.372;10.888;2023-05-07T01:24:21;14.60;99.90
34153;DHT22;20426;48.372;10.888;2023-05-07T01:24:52;14.60;99.90
34153;DHT22;20426;48.372;10.888;2023-05-07T01:25:23;14.60;99.90
34153;DHT22;20426;48.372;10.888;2023-05-07T01:25:54;14.60;99.90
34153;DHT22;20426;48.372;10.888;2023-05-07T01:26:25;14.60;99.90
34153;DHT22;20426;48.372;10.888;2023-05-07T01:26:56;14.60;99.90
34153;DHT22;20426;48.372;10.888;2023-05-07T01:27:27;14.60;99.90
34153;DHT22;20426;48.372;10.888;2023-05-07T01:27:58;14.60;99.90
34153;DHT22;20426;48.372;10.888;2023-05-07T01:28:32;14.50;99.90
34153;DHT22;20426;48.372;10.888;2023-05-07T01:29:03;14.50;99.90
34153;DHT22;20426;48.372;10.888;2023-05-07T01:29:34;14.50;99.90
34153;DHT22;20426;48.372;10.888;2023-05-07T01:30:05;14.50;99.90
34153;DHT22;20426;48.372;10.888;2023-05-07T01:30:36;14.60;99.90
34153;DHT22;20426;48.372;10.888;2023-05-07T01:31:09;14.60;99.90
34153;DHT22;20426;48.372;10.888;2023-05-07T01:31:41;14.50;99.90
34153;DHT22;20426;48.372;10.888;2023-05-07T01:32:13;14.50;99.90
34153;DHT22;20426;48.372;10.888;2023-05-07T01:32:53;14.50;99.90
34153;DHT22;20426;48.372;10.888;2023-05-07T01:33:30;14.50;99.90
34153;DHT22;20426;48.372;10.888;2023-05-07T01:34:03;14.50;99.90
34153;DHT22;20426;48.372;10.888;2023-05-07T01:34:36;14.50;99.90
34153;DHT22;20426;48.372;10.888;2023-05-07T01:35:10;14.50;99.90
34153;DHT22;20426;48.372;10.888;2023-05-07T01:35:43;14.50;99.90
34153;DHT22;20426;48.372;10.888;2023-05-07T01:36:17;14.50;99.90
34153;DHT22;20426;48.372;10.888;2023-05-07T01:36:49;14.50;99.90
34153;DHT22;20426;48.372;10.888;2023-05-07T01:37:21;14.50;99.90
34153;DHT22;20426;48.372;10.888;2023-05-07T01:37:52;14.50;99.90
34153;DHT22;20426;48.372;10.888;2023-05-07T01:38:23;14.50;99.90
34153;DHT22;20426;48.372;10.888;2023-05-07T01:38:54;14.50;99.90
34153;DHT22;20426;48.372;10.888;2023-05-07T01:39:29;14.50;99.90
34153;DHT22;20426;48.372;10.888;2023-05-07T01:40:02;14.40;99.90
34153;DHT22;20426;48.372;10.888;2023-05-07T01:40:33;14.50;99.90
34153;DHT22;20426;48.372;10.888;2023-05-07T01:41:05;14.50;99.90
34153;DHT22;20426;48.372;10.888;2023-05-07T01:41:36;14.40;99.90
34153;DHT22;20426;48.372;10.888;2023-05-07T01:42:07;14.40;99.90
34153;DHT22;20426;48.372;10.888;2023-05-07T01:42:38;14.40;99.90
34153;DHT22;20426;48.372;10.888;2023-05-07T01:43:09;14.40;99.90
34153;DHT22;20426;48.372;10.888;2023-05-07T01:43:41;14.40;99.90
34153;DHT22;20426;48.372;10.888;2023-05-07T01:44:13;14.40;99.90
34153;DHT22;20426;48.372;10.888;2023-05-07T01:44:45;14.40;99.90
34153;DHT22;20426;48.372;10.888;2023-05-07T01:45:16;14.40;99.90
34153;DHT22;20426;48.372;10.888;2023-05-07T01:45:47;14.30;99.90
34153;DHT22;20426;48.372;10.888;2023-05-07T01:46:19;14.30;99.90
34153;DHT22;20426;48.372;10.888;2023-05-07T01:46:50;14.30;99.90
34153;DHT22;20426;48.372;10.888;2023-05-07T01:47:21;14.30;99.90
34153;DHT22;20426;48.372;10.888;2023-05-07T01:47:53;14.30;99.90
34153;DHT22;20426;48.372;10.888;2023-05-07T01:48:24;14.30;99.90
34153;DHT22;20426;48.372;10.888;2023-05-07T01:48:55;14.20;99.90
34153;DHT22;20426;48.372;10.888;2023-05-07T01:49:26;14.30;99.90
34153;DHT22;20426;48.372;10.888;2023-05-07T01:49:57;14.20;99.90
34153;DHT22;20426;48.372;10.888;2023-05-07T01:50:29;14.20;99.90
34153;DHT22;20426;48.372;10.888;2023-05-07T01:51:01;14.20;99.90
34153;DHT22;20426;48.372;10.888;2023-05-07T01:51:33;14.20;99.90
34153;DHT22;20426;48.372;10.888;2023-05-07T01:52:03;14.20;99.90
34153;DHT22;20426;48.372;10.888;2023-05-07T01:52:36;14.20;99.90
34153;DHT22;20426;48.372;10.888;2023-05-07T01:53:06;14.20;99.90
34153;DHT22;20426;48.372;10.888;2023-05-07T01:53:38;14.20;99.90
34153;DHT22;20426;48.372;10.888;2023-05-07T01:54:09;14.20;99.90
34153;DHT22;20426;48.372;10.888;2023-05-07T01:54:40;14.20;99.90
34153;DHT22;20426;48.372;10.888;2023-05-07T01:55:11;14.20;99.90
34153;DHT22;20426;48.372;10.888;2023-05-07T01:55:42;14.10;99.90
34153;DHT22;20426;48.372;10.888;2023-05-07T01:56:12;14.10;99.90
34153;DHT22;20426;48.372;10.888;2023-05-07T01:56:43;14.10;99.90
34153;DHT22;20426;48.372;10.888;2023-05-07T01:57:14;14.10;99.90
34153;DHT22;20426;48.372;10.888;2023-05-07T01:58:25;14.10;99.90
34153;DHT22;20426;48.372;10.888;2023-05-07T01:58:55;14.10;99.90
34153;DHT22;20426;48.372;10.888;2023-05-07T01:59:26;14.10;99.90
34153;DHT22;20426;48.372;10.888;2023-05-07T01:59:57;14.10;99.90
34153;DHT22;20426;48.372;10.888;2023-05-07T02:00:27;14.10;99.90
34153;DHT22;20426;48.372;10.888;2023-05-07T02:01:00;14.10;99.90
34153;DHT22;20426;48.372;10.888;2023-05-07T02:01:30;14.10;99.90
34153;DHT22;20426;48.372;10.888;2023-05-07T02:02:01;14.10;99.90
34153;DHT22;20426;48.372;10.888;2023-05-07T02:02:32;14.10;99.90
34153;DHT22;20426;48.372;10.888;2023-05-07T02:03:02;14.10;99.90
34153;DHT22;20426;48.372;10.888;2023-05-07T02:03:33;14.10;99.90
34153;DHT22;20426;48.372;10.888;2023-05-07T02:04:04;14.10;99.90
34153;DHT22;20426;48.372;10.888;2023-05-07T02:04:35;14.10;99.90
34153;DHT22;20426;48.372;10.888;2023-05-07T02:05:06;14.10;99.90
34153;DHT22;20426;48.372;10.888;2023-05-07T02:05:36;14.10;99.90
34153;DHT22;20426;48.372;10.888;2023-05-07T02:06:07;14.10;99.90
34153;DHT22;20426;48.372;10.888;2023-05-07T02:06:38;14.10;99.90
34153;DHT22;20426;48.372;10.888;2023-05-07T02:07:08;14.10;99.90
34153;DHT22;20426;48.372;10.888;2023-05-07T02:07:39;14.10;99.90
34153;DHT22;20426;48.372;10.888;2023-05-07T02:08:10;14.10;99.90
34153;DHT22;20426;48.372;10.888;2023-05-07T02:08:40;14.10;99.90
34153;DHT22;20426;48.372;10.888;2023-05-07T02:09:11;14.10;99.90
34153;DHT22;20426;48.372;10.888;2023-05-07T02:09:42;14.10;99.90
34153;DHT22;20426;48.372;10.888;2023-05-07T02:10:13;14.00;99.90
34153;DHT22;20426;48.372;10.888;2023-05-07T02:10:43;14.00;99.90
34153;DHT22;20426;48.372;10.888;2023-05-07T02:11:14;14.00;99.90
34153;DHT22;20426;48.372;10.888;2023-05-07T02:11:45;14.00;99.90
34153;DHT22;20426;48.372;10.888;2023-05-07T02:12:15;14.00;99.90
34153;DHT22;20426;48.372;10.888;2023-05-07T02:12:46;14.00;99.90
34153;DHT22;20426;48.372;10.888;2023-05-07T02:13:17;14.00;99.90
34153;DHT22;20426;48.372;10.888;2023-05-07T02:13:47;14.00;99.90
34153;DHT22;20426;48.372;10.888;2023-05-07T02:14:18;14.00;99.90
34153;DHT22;20426;48.372;10.888;2023-05-07T02:14:50;14.00;99.90
34153;DHT22;20426;48.372;10.888;2023-05-07T02:15:21;14.00;99.90
34153;DHT22;20426;48.372;10.888;2023-05-07T02:15:51;14.00;99.90
34153;DHT22;20426;48.372;10.888;2023-05-07T02:16:22;13.90;99.90
34153;DHT22;20426;48.372;10.888;2023-05-07T02:16:54;13.90;99.90
34153;DHT22;20426;48.372;10.888;2023-05-07T02:17:24;13.90;99.90
34153;DHT22;20426;48.372;10.888;2023-05-07T02:18:08;13.90;99.90
34153;DHT22;20426;48.372;10.888;2023-05-07T02:18:42;13.90;99.90
34153;DHT22;20426;48.372;10.888;2023-05-07T02:19:12;14.00;99.90
34153;DHT22;20426;48.372;10.888;2023-05-07T02:19:43;14.00;99.90
34153;DHT22;20426;48.372;10.888;2023-05-07T02:20:14;14.00;99.90
34153;DHT22;20426;48.372;10.888;2023-05-07T02:20:45;14.00;99.90
34153;DHT22;20426;48.372;10.888;2023-05-07T02:21:15;14.00;99.90
34153;DHT22;20426;48.372;10.888;2023-05-07T02:21:46;14.00;99.90
34153;DHT22;20426;48.372;10.888;2023-05-07T02:22:17;13.90;99.90
34153;DHT22;20426;48.372;10.888;2023-05-07T02:22:48;13.90;99.90
34153;DHT22;20426;48.372;10.888;2023-05-07T02:23:19;13.90;99.90
34153;DHT22;20426;48.372;10.888;2023-05-07T02:23:49;13.90;99.90
34153;DHT22;20426;48.372;10.888;2023-05-07T02:24:20;13.90;99.90
34153;DHT22;20426;48.372;10.888;2023-05-07T02:24:51;14.00;99.90
34153;DHT22;20426;48.372;10.888;2023-05-07T02:25:22;13.90;99.90
34153;DHT22;20426;48.372;10.888;2023-05-07T02:25:53;14.00;99.90
34153;DHT22;20426;48.372;10.888;2023-05-07T02:26:23;13.90;99.90
34153;DHT22;20426;48.372;10.888;2023-05-07T02:26:54;14.00;99.90
34153;DHT22;20426;48.372;10.888;2023-05-07T02:27:25;13.90;99.90
34153;DHT22;20426;48.372;10.888;2023-05-07T02:27:55;14.00;99.90
34153;DHT22;20426;48.372;10.888;2023-05-07T02:28:26;14.00;99.90
34153;DHT22;20426;48.372;10.888;2023-05-07T02:28:57;13.90;99.90
34153;DHT22;20426;48.372;10.888;2023-05-07T02:29:27;14.00;99.90
34153;DHT22;20426;48.372;10.888;2023-05-07T02:29:58;14.00;99.90
34153;DHT22;20426;48.372;10.888;2023-05-07T02:30:29;13.90;99.90
34153;DHT22;20426;48.372;10.888;2023-05-07T02:30:59;14.00;99.90
34153;DHT22;20426;48.372;10.888;2023-05-07T02:31:31;13.90;99.90
34153;DHT22;20426;48.372;10.888;2023-05-07T02:32:01;13.90;99.90
34153;DHT22;20426;48.372;10.888;2023-05-07T02:32:32;13.90;99.90
34153;DHT22;20426;48.372;10.888;2023-05-07T02:33:03;13.90;99.90
34153;DHT22;20426;48.372;10.888;2023-05-07T02:33:34;13.90;99.90
34153;DHT22;20426;48.372;10.888;2023-05-07T02:34:05;13.90;99.90
34153;DHT22;20426;48.372;10.888;2023-05-07T02:34:36;13.90;99.90
34153;DHT22;20426;48.372;10.888;2023-05-07T02:35:07;13.90;99.90
34153;DHT22;20426;48.372;10.888;2023-05-07T02:35:38;13.90;99.90
34153;DHT22;20426;48.372;10.888;2023-05-07T02:36:10;13.90;99.90
34153;DHT22;20426;48.372;10.888;2023-05-07T02:36:40;13.90;99.90
34153;DHT22;20426;48.372;10.888;2023-05-07T02:37:11;13.90;99.90
34153;DHT22;20426;48.372;10.888;2023-05-07T02:37:42;13.90;99.90
34153;DHT22;20426;48.372;10.888;2023-05-07T02:38:13;13.90;99.90
34153;DHT22;20426;48.372;10.888;2023-05-07T02:38:43;13.90;99.90
34153;DHT22;20426;48.372;10.888;2023-05-07T02:39:14;13.80;99.90
34153;DHT22;20426;48.372;10.888;2023-05-07T02:39:45;13.80;99.90
34153;DHT22;20426;48.372;10.888;2023-05-07T02:40:16;13.80;99.90
34153;DHT22;20426;48.372;10.888;2023-05-07T02:40:47;13.80;99.90
34153;DHT22;20426;48.372;10.888;2023-05-07T02:41:18;13.80;99.90
34153;DHT22;20426;48.372;10.888;2023-05-07T02:41:48;13.80;99.90
34153;DHT22;20426;48.372;10.888;2023-05-07T02:42:19;13.80;99.90
34153;DHT22;20426;48.372;10.888;2023-05-07T02:42:50;13.80;99.90
34153;DHT22;20426;48.372;10.888;2023-05-07T02:43:20;13.80;99.90
34153;DHT22;20426;48.372;10.888;2023-05-07T02:43:51;13.80;99.90
34153;DHT22;20426;48.372;10.888;2023-05-07T02:44:22;13.80;99.90
34153;DHT22;20426;48.372;10.888;2023-05-07T02:44:52;13.80;99.90
34153;DHT22;20426;48.372;10.888;2023-05-07T02:45:23;13.80;99.90
34153;DHT22;20426;48.372;10.888;2023-05-07T02:46:04;13.80;99.90
34153;DHT22;20426;48.372;10.888;2023-05-07T02:46:34;13.80;99.90
34153;DHT22;20426;48.372;10.888;2023-05-07T02:47:05;13.80;99.90
34153;DHT22;20426;48.372;10.888;2023-05-07T02:47:38;13.80;99.90
34153;DHT22;20426;48.372;10.888;2023-05-07T02:48:09;13.70;99.90
34153;DHT22;20426;48.372;10.888;2023-05-07T02:48:40;13.80;99.90
34153;DHT22;20426;48.372;10.888;2023-05-07T02:49:10;13.80;99.90
34153;DHT22;20426;48.372;10.888;2023-05-07T02:49:41;13.70;99.90
34153;DHT22;20426;48.372;10.888;2023-05-07T02:50:12;13.80;99.90
34153;DHT22;20426;48.372;10.888;2023-05-07T02:50:43;13.80;99.90
34153;DHT22;20426;48.372;10.888;2023-05-07T02:51:13;13.80;99.90
34153;DHT22;20426;48.372;10.888;2023-05-07T02:51:44;13.80;99.90
34153;DHT22;20426;48.372;10.888;2023-05-07T02:52:15;13.80;99.90
34153;DHT22;20426;48.372;10.888;2023-05-07T02:52:46;13.80;99.90
34153;DHT22;20426;48.372;10.888;2023-05-07T02:53:17;13.80;99.90
34153;DHT22;20426;48.372;10.888;2023-05-07T02:53:48;13.80;99.90
34153;DHT22;20426;48.372;10.888;2023-05-07T02:54:19;13.80;99.90
34153;DHT22;20426;48.372;10.888;2023-05-07T02:54:50;13.80;99.90
34153;DHT22;20426;48.372;10.888;2023-05-07T02:55:21;13.80;99.90
34153;DHT22;20426;48.372;10.888;2023-05-07T02:55:55;13.80;99.90
34153;DHT22;20426;48.372;10.888;2023-05-07T02:56:26;13.80;99.90
34153;DHT22;20426;48.372;10.888;2023-05-07T02:56:57;13.80;99.90
34153;DHT22;20426;48.372;10.888;2023-05-07T02:57:28;13.80;99.90
34153;DHT22;20426;48.372;10.888;2023-05-07T02:57:59;13.80;99.90
34153;DHT22;20426;48.372;10.888;2023-05-07T02:58:29;13.70;99.90
34153;DHT22;20426;48.372;10.888;2023-05-07T02:59:00;13.80;99.90
34153;DHT22;20426;48.372;10.888;2023-05-07T02:59:31;13.70;99.90
34153;DHT22;20426;48.372;10.888;2023-05-07T03:00:11;13.80;99.90
34153;DHT22;20426;48.372;10.888;2023-05-07T03:00:42;13.70;99.90
34153;DHT22;20426;48.372;10.888;2023-05-07T03:01:12;13.80;99.90
34153;DHT22;20426;48.372;10.888;2023-05-07T03:01:44;13.80;99.90
34153;DHT22;20426;48.372;10.888;2023-05-07T03:02:15;13.80;99.90
34153;DHT22;20426;48.372;10.888;2023-05-07T03:02:46;13.70;99.90
34153;DHT22;20426;48.372;10.888;2023-05-07T03:03:17;13.70;99.90
34153;DHT22;20426;48.372;10.888;2023-05-07T03:03:48;13.70;99.90
34153;DHT22;20426;48.372;10.888;2023-05-07T03:04:18;13.70;99.90
34153;DHT22;20426;48.372;10.888;2023-05-07T03:04:49;13.70;99.90
34153;DHT22;20426;48.372;10.888;2023-05-07T03:05:20;13.70;99.90
34153;DHT22;20426;48.372;10.888;2023-05-07T03:05:50;13.70;99.90
34153;DHT22;20426;48.372;10.888;2023-05-07T03:06:21;13.70;99.90
34153;DHT22;20426;48.372;10.888;2023-05-07T03:06:52;13.70;99.90
34153;DHT22;20426;48.372;10.888;2023-05-07T03:07:22;13.70;99.90
34153;DHT22;20426;48.372;10.888;2023-05-07T03:07:53;13.70;99.90
34153;DHT22;20426;48.372;10.888;2023-05-07T03:08:24;13.70;99.90
34153;DHT22;20426;48.372;10.888;2023-05-07T03:08:55;13.70;99.90
34153;DHT22;20426;48.372;10.888;2023-05-07T03:09:25;13.70;99.90
34153;DHT22;20426;48.372;10.888;2023-05-07T03:09:56;13.70;99.90
34153;DHT22;20426;48.372;10.888;2023-05-07T03:10:27;13.70;99.90
34153;DHT22;20426;48.372;10.888;2023-05-07T03:10:58;13.80;99.90
34153;DHT22;20426;48.372;10.888;2023-05-07T03:11:28;13.80;99.90
34153;DHT22;20426;48.372;10.888;2023-05-07T03:11:59;13.80;99.90
34153;DHT22;20426;48.372;10.888;2023-05-07T03:12:30;13.80;99.90
34153;DHT22;20426;48.372;10.888;2023-05-07T03:13:02;13.80;99.90
34153;DHT22;20426;48.372;10.888;2023-05-07T03:13:32;13.80;99.90
34153;DHT22;20426;48.372;10.888;2023-05-07T03:14:03;13.80;99.90
34153;DHT22;20426;48.372;10.888;2023-05-07T03:14:34;13.80;99.90